Time;durP1;ratioP1;P1;durP2;ratioP2;P2;SDS_P1;SDS_P2;PMS_P1;PMS_P2;Temp;Humidity;BMP_temperature;BMP_pressure;BME280_temperature;BME280_humidity;BME280_pressure;Samples;Min_cycle;Max_cycle;Signal;HPM_P1;HPM_P2
2023/03/20 00:00:34;;;;;;;241.00;107.45;;;9.40;99.90;;;;;;5052706;28;20474;-78
2023/03/20 00:03:00;;;;;;;227.27;103.53;;;9.40;99.90;;;;;;5052330;28;20031;-78
2023/03/20 00:05:28;;;;;;;243.63;102.40;;;9.30;99.90;;;;;;5052884;28;20021;-78
2023/03/20 00:08:09;;;;;;;260.23;108.13;;;9.30;99.90;;;;;;5052905;28;20130;-81
2023/03/20 00:10:41;;;;;;;252.10;108.35;;;9.30;99.90;;;;;;5052940;28;20044;-79
2023/03/20 00:13:15;;;;;;;236.38;103.25;;;9.20;99.90;;;;;;5054407;28;20032;-78
2023/03/20 00:15:43;;;;;;;233.52;101.35;;;9.20;99.90;;;;;;5057239;28;20029;-81
2023/03/20 00:18:19;;;;;;;215.90;98.05;;;9.20;99.90;;;;;;5055932;28;20159;-79
2023/03/20 00:20:49;;;;;;;178.25;81.03;;;9.20;99.90;;;;;;5055804;28;20032;-79
2023/03/20 00:23:16;;;;;;;154.38;69.18;;;9.10;99.90;;;;;;5058033;28;20044;-78
2023/03/20 00:25:44;;;;;;;165.25;73.43;;;9.10;99.90;;;;;;5057034;28;20029;-77
2023/03/20 00:28:32;;;;;;;156.82;74.13;;;9.00;99.90;;;;;;5056651;28;20475;-77
2023/03/20 00:30:58;;;;;;;149.27;69.35;;;9.00;99.90;;;;;;5055277;28;20053;-79
2023/03/20 00:33:25;;;;;;;183.10;74.65;;;8.90;99.90;;;;;;5056879;28;20021;-81
2023/03/20 00:35:51;;;;;;;163.32;72.00;;;8.90;99.90;;;;;;5055319;28;20124;-77
2023/03/20 00:38:17;;;;;;;149.15;67.60;;;8.90;99.90;;;;;;5056529;28;20116;-78
2023/03/20 00:40:44;;;;;;;157.57;71.65;;;8.90;99.90;;;;;;5056771;28;20029;-78
2023/03/20 00:43:12;;;;;;;156.63;71.68;;;8.90;99.90;;;;;;5056385;28;20032;-78
2023/03/20 00:45:38;;;;;;;166.15;74.45;;;8.90;99.90;;;;;;5056660;28;20053;-76
2023/03/20 00:48:04;;;;;;;188.02;80.40;;;8.90;99.90;;;;;;5056635;28;20060;-77
2023/03/20 00:50:30;;;;;;;219.73;88.45;;;8.80;99.90;;;;;;5055970;28;20040;-76
2023/03/20 00:52:57;;;;;;;196.60;82.93;;;8.80;99.90;;;;;;5056590;28;20032;-77
2023/03/20 00:55:26;;;;;;;194.18;83.38;;;8.80;99.90;;;;;;5055005;28;20367;-79
2023/03/20 00:58:00;;;;;;;185.05;80.72;;;8.80;99.90;;;;;;5056513;28;20075;-79
2023/03/20 01:00:44;;;;;;;221.82;90.38;;;8.70;99.90;;;;;;5056129;28;20079;-77
2023/03/20 01:03:22;;;;;;;203.82;89.00;;;8.70;99.90;;;;;;5055748;28;20025;-75
2023/03/20 01:05:49;;;;;;;194.32;82.55;;;8.70;99.90;;;;;;5056329;28;20025;-76
2023/03/20 01:08:20;;;;;;;179.30;79.32;;;8.60;99.90;;;;;;5056249;28;20428;-78
2023/03/20 01:10:50;;;;;;;159.32;75.72;;;8.60;99.90;;;;;;5056006;28;20029;-80
2023/03/20 01:13:20;;;;;;;159.00;73.55;;;8.60;99.90;;;;;;5056404;28;20104;-79
2023/03/20 01:15:47;;;;;;;160.73;78.10;;;8.60;99.90;;;;;;5055365;28;20427;-77
2023/03/20 01:18:14;;;;;;;155.13;75.88;;;8.60;99.90;;;;;;5074177;28;20033;-78
2023/03/20 01:20:40;;;;;;;158.40;73.05;;;8.50;99.90;;;;;;5076051;28;20025;-76
2023/03/20 01:23:06;;;;;;;135.88;64.43;;;8.50;99.90;;;;;;5075640;28;20482;-77
2023/03/20 01:25:33;;;;;;;135.50;65.88;;;8.50;99.90;;;;;;5074185;28;20364;-76
2023/03/20 01:27:59;;;;;;;121.32;60.75;;;8.50;99.90;;;;;;5074657;28;20467;-75
2023/03/20 01:30:30;;;;;;;127.53;60.45;;;8.50;99.90;;;;;;5075605;28;20045;-78
2023/03/20 01:32:56;;;;;;;128.23;59.33;;;8.40;99.90;;;;;;5075666;28;20025;-78
2023/03/20 01:35:26;;;;;;;137.52;62.13;;;8.40;99.90;;;;;;5075448;28;20024;-78
2023/03/20 01:37:53;;;;;;;130.95;62.83;;;8.40;99.90;;;;;;5074357;28;20353;-78
2023/03/20 01:40:42;;;;;;;142.57;67.35;;;8.40;99.90;;;;;;5075417;28;20016;-77
2023/03/20 01:43:17;;;;;;;147.75;67.07;;;8.40;99.90;;;;;;5075620;28;20103;-77
2023/03/20 01:46:10;;;;;;;121.18;56.85;;;8.30;99.90;;;;;;5059242;28;20095;-77
2023/03/20 01:48:57;;;;;;;107.40;50.92;;;8.20;99.90;;;;;;5055529;28;20036;-78
2023/03/20 01:51:22;;;;;;;91.88;46.55;;;8.20;99.90;;;;;;5055296;28;20045;-78
2023/03/20 01:54:11;;;;;;;89.97;43.17;;;8.10;99.90;;;;;;5055381;28;20028;-77
2023/03/20 01:56:46;;;;;;;88.63;43.45;;;8.10;99.90;;;;;;5055118;28;20407;-79
2023/03/20 01:59:20;;;;;;;86.68;44.03;;;8.10;99.90;;;;;;5054801;28;20438;-76
2023/03/20 02:01:45;;;;;;;78.07;41.78;;;8.00;99.90;;;;;;5052785;28;20379;-78
2023/03/20 02:04:14;;;;;;;90.13;43.10;;;8.00;99.90;;;;;;5054846;28;20103;-80
2023/03/20 02:06:43;;;;;;;101.97;47.13;;;8.00;99.90;;;;;;5053065;28;20033;-77
2023/03/20 02:09:09;;;;;;;100.40;47.55;;;8.00;99.90;;;;;;5052372;28;20083;-76
2023/03/20 02:11:38;;;;;;;94.88;46.17;;;8.00;99.90;;;;;;5053063;28;20494;-77
2023/03/20 02:14:04;;;;;;;108.55;48.65;;;7.90;99.90;;;;;;5052452;28;20131;-77
2023/03/20 02:16:29;;;;;;;114.55;52.83;;;7.90;99.90;;;;;;5053763;28;20439;-74
2023/03/20 02:18:57;;;;;;;130.90;59.10;;;7.90;99.90;;;;;;5054187;28;20067;-73
2023/03/20 02:21:45;;;;;;;151.45;66.60;;;7.80;99.90;;;;;;5053466;28;20427;-74
2023/03/20 02:24:32;;;;;;;140.15;64.00;;;7.80;99.90;;;;;;5052968;28;20044;-74
2023/03/20 02:27:00;;;;;;;121.55;59.83;;;7.90;99.90;;;;;;5052380;28;20044;-73
2023/03/20 02:29:53;;;;;;;123.47;58.97;;;7.80;99.90;;;;;;5053900;28;20396;-73
2023/03/20 02:32:40;;;;;;;108.68;52.33;;;7.80;99.90;;;;;;5049582;28;20389;-76
2023/03/20 02:35:19;;;;;;;107.32;49.88;;;7.80;99.90;;;;;;5053005;28;20033;-74
2023/03/20 02:38:08;;;;;;;92.47;45.80;;;7.70;99.90;;;;;;5054004;28;20408;-72
2023/03/20 02:40:40;;;;;;;76.95;40.53;;;7.70;99.90;;;;;;5050060;28;20036;-73
2023/03/20 02:43:35;;;;;;;80.88;39.40;;;7.70;99.90;;;;;;5053430;28;20029;-73
2023/03/20 02:46:10;;;;;;;71.80;35.95;;;7.60;99.90;;;;;;5053773;28;20484;-74
2023/03/20 02:48:54;;;;;;;67.88;34.42;;;7.60;99.90;;;;;;5053175;28;20025;-73
2023/03/20 02:51:36;;;;;;;83.13;39.65;;;7.60;99.90;;;;;;5047977;28;20036;-75
2023/03/20 02:54:33;;;;;;;82.78;39.40;;;7.60;99.90;;;;;;5053619;28;20103;-73
2023/03/20 02:57:08;;;;;;;78.38;39.75;;;7.60;99.90;;;;;;5050976;28;20410;-73
2023/03/20 02:59:56;;;;;;;76.95;34.65;;;7.60;99.90;;;;;;5052830;28;20032;-73
2023/03/20 03:02:37;;;;;;;74.15;36.85;;;7.60;99.90;;;;;;5052611;28;20052;-74
2023/03/20 03:05:11;;;;;;;95.75;43.25;;;7.60;99.90;;;;;;5053519;28;20029;-75
2023/03/20 03:07:40;;;;;;;98.22;42.78;;;7.60;99.90;;;;;;5053348;28;20104;-73
2023/03/20 03:10:22;;;;;;;98.78;43.45;;;7.60;99.90;;;;;;5053202;28;20083;-74
2023/03/20 03:12:50;;;;;;;;;;;7.60;99.90;;;;;;5053998;28;20033;-73
2023/03/20 03:15:22;;;;;;;91.57;41.40;;;7.60;99.90;;;;;;5053258;28;20421;-74
2023/03/20 03:17:48;;;;;;;;;;;7.60;99.90;;;;;;5053656;28;20082;-74
2023/03/20 03:20:26;;;;;;;90.85;40.47;;;7.50;99.90;;;;;;5052925;28;19970;-74
2023/03/20 03:22:52;;;;;;;92.25;42.05;;;7.50;99.90;;;;;;5051744;28;20108;-73
2023/03/20 03:25:23;;;;;;;91.05;41.60;;;7.50;99.90;;;;;;5053076;28;20105;-72
2023/03/20 03:28:00;;;;;;;81.22;39.45;;;7.50;99.90;;;;;;5052963;28;20095;-74
2023/03/20 03:30:31;;;;;;;69.97;36.53;;;7.50;99.90;;;;;;5051137;28;20136;-75
2023/03/20 03:33:26;;;;;;;79.43;33.75;;;7.50;99.90;;;;;;5052879;28;20044;-73
2023/03/20 03:35:58;;;;;;;65.35;35.85;;;7.50;99.90;;;;;;5052770;28;20025;-73
2023/03/20 03:38:26;;;;;;;68.22;38.33;;;7.50;99.90;;;;;;5052205;28;20100;-74
2023/03/20 03:41:15;;;;;;;55.70;29.88;;;7.50;99.90;;;;;;5052975;28;20029;-73
2023/03/20 03:44:02;;;;;;;55.00;29.15;;;7.50;99.90;;;;;;5030089;28;20115;-74
2023/03/20 03:46:45;;;;;;;52.25;32.30;;;7.50;99.90;;;;;;5030826;28;20064;-75
2023/03/20 03:49:17;;;;;;;52.40;26.35;;;7.50;99.90;;;;;;5034522;28;20117;-73
2023/03/20 03:51:47;;;;;;;48.03;25.23;;;7.50;99.90;;;;;;5033622;28;20361;-73
2023/03/20 03:54:21;;;;;;;53.90;25.13;;;7.50;99.90;;;;;;5034437;28;20084;-73
2023/03/20 03:56:49;;;;;;;46.70;26.17;;;7.50;99.90;;;;;;5034221;28;20496;-74
2023/03/20 03:59:37;;;;;;;46.63;25.67;;;7.50;99.90;;;;;;5034024;28;20497;-73
2023/03/20 04:02:07;;;;;;;47.50;23.83;;;7.60;99.90;;;;;;5034292;28;20488;-74
2023/03/20 04:04:35;;;;;;;44.10;24.77;;;7.60;99.90;;;;;;5028609;28;20133;-73
2023/03/20 04:07:00;;;;;;;47.67;23.67;;;7.60;99.90;;;;;;5034011;28;20050;-73
2023/03/20 04:09:26;;;;;;;49.45;24.42;;;7.60;99.90;;;;;;5017845;28;20032;-73
2023/03/20 04:11:52;;;;;;;48.95;24.65;;;7.60;99.90;;;;;;5033977;28;20034;-73
2023/03/20 04:14:18;;;;;;;48.80;25.75;;;7.60;99.90;;;;;;5034092;28;20041;-75
2023/03/20 04:16:45;;;;;;;43.88;23.67;;;7.60;99.90;;;;;;5034100;28;20030;-74
2023/03/20 04:19:11;;;;;;;55.92;28.90;;;7.60;99.90;;;;;;5017091;28;20156;-72
2023/03/20 04:21:36;;;;;;;49.10;27.83;;;7.60;99.90;;;;;;5053337;28;20037;-73
2023/03/20 04:24:02;;;;;;;57.80;28.23;;;7.70;99.90;;;;;;5056799;28;20029;-73
2023/03/20 04:26:28;;;;;;;55.15;28.15;;;7.70;99.90;;;;;;5056173;28;20025;-73
2023/03/20 04:28:54;;;;;;;51.00;25.13;;;7.70;99.90;;;;;;5055934;28;20037;-75
2023/03/20 04:31:20;;;;;;;45.90;24.58;;;7.80;99.90;;;;;;5056441;28;20040;-72
2023/03/20 04:33:46;;;;;;;50.17;23.80;;;7.80;99.90;;;;;;5055629;28;20087;-74
2023/03/20 04:36:12;;;;;;;44.75;21.58;;;7.90;99.90;;;;;;5056048;28;20021;-72
2023/03/20 04:38:39;;;;;;;46.75;20.98;;;8.00;99.90;;;;;;5056377;28;20021;-74
2023/03/20 04:41:05;;;;;;;45.33;20.73;;;8.10;99.90;;;;;;5055410;28;20033;-72
2023/03/20 04:43:31;;;;;;;42.47;19.52;;;8.30;99.90;;;;;;5055860;28;20032;-73
2023/03/20 04:45:57;;;;;;;44.30;20.58;;;8.40;99.90;;;;;;5055961;28;20029;-72
2023/03/20 04:48:23;;;;;;;48.33;22.23;;;8.50;99.90;;;;;;5055809;28;20025;-72
2023/03/20 04:50:49;;;;;;;43.20;21.13;;;8.60;99.90;;;;;;5055903;28;20094;-73
2023/03/20 04:53:16;;;;;;;37.20;19.88;;;8.70;99.90;;;;;;5055567;28;20029;-73
2023/03/20 04:55:43;;;;;;;39.75;19.10;;;8.80;99.90;;;;;;5055775;28;20036;-72
2023/03/20 04:58:08;;;;;;;34.13;17.77;;;8.90;99.90;;;;;;5054000;28;20036;-73
2023/03/20 05:00:34;;;;;;;44.55;26.20;;;9.00;99.90;;;;;;5055132;28;20032;-74
2023/03/20 05:03:00;;;;;;;40.53;17.77;;;9.10;99.90;;;;;;5054976;28;20376;-74
2023/03/20 05:05:26;;;;;;;41.40;17.83;;;9.20;99.90;;;;;;5055316;28;20495;-74
2023/03/20 05:07:52;;;;;;;38.90;17.85;;;9.20;99.90;;;;;;5055598;28;20025;-74
2023/03/20 05:10:18;;;;;;;35.97;18.33;;;9.30;99.90;;;;;;5054158;28;20384;-73
2023/03/20 05:12:44;;;;;;;46.65;19.13;;;9.30;99.90;;;;;;5055214;28;20040;-72
2023/03/20 05:15:10;;;;;;;42.92;18.40;;;9.40;99.90;;;;;;5054881;28;20045;-74
2023/03/20 05:17:36;;;;;;;47.15;19.02;;;9.40;99.90;;;;;;5054869;28;20468;-73
2023/03/20 05:20:01;;;;;;;43.80;18.65;;;9.50;99.90;;;;;;5055299;28;20047;-72
2023/03/20 05:22:27;;;;;;;46.47;21.02;;;9.50;99.90;;;;;;5055978;28;20083;-73
2023/03/20 05:24:53;;;;;;;43.47;19.27;;;9.50;99.90;;;;;;5056017;28;20475;-75
2023/03/20 05:27:19;;;;;;;60.83;20.25;;;9.60;99.90;;;;;;5055095;28;20025;-75
2023/03/20 05:29:44;;;;;;;54.35;24.42;;;9.70;99.90;;;;;;5054514;28;20025;-74
2023/03/20 05:32:11;;;;;;;48.35;21.27;;;9.70;99.90;;;;;;5055159;28;20434;-73
2023/03/20 05:34:37;;;;;;;46.15;21.25;;;9.80;99.90;;;;;;5055069;28;20464;-75
2023/03/20 05:37:03;;;;;;;45.45;19.50;;;9.80;99.90;;;;;;5054387;28;20167;-73
2023/03/20 05:39:29;;;;;;;41.40;18.95;;;9.90;99.90;;;;;;5055492;28;20112;-74
2023/03/20 05:41:55;;;;;;;37.45;17.77;;;9.90;99.90;;;;;;5055094;28;20032;-73
2023/03/20 05:44:21;;;;;;;32.55;16.35;;;10.00;99.90;;;;;;5055308;28;20025;-74
2023/03/20 05:46:46;;;;;;;33.35;16.48;;;10.10;99.90;;;;;;5054788;28;20032;-74
2023/03/20 05:49:12;;;;;;;34.10;17.77;;;10.10;99.90;;;;;;5054656;28;20032;-74
2023/03/20 05:51:38;;;;;;;45.13;17.92;;;10.20;99.90;;;;;;5052804;28;20044;-73
2023/03/20 05:54:04;;;;;;;35.05;17.45;;;10.30;99.90;;;;;;5055013;28;20032;-74
2023/03/20 05:56:30;;;;;;;38.33;17.33;;;10.30;99.90;;;;;;5054544;28;20020;-72
2023/03/20 05:58:56;;;;;;;34.22;17.60;;;10.40;99.90;;;;;;5053906;28;20360;-73
2023/03/20 06:01:22;;;;;;;33.60;16.83;;;10.50;99.90;;;;;;5054349;28;20033;-74
2023/03/20 06:03:48;;;;;;;37.25;16.60;;;10.60;99.90;;;;;;5054142;28;20430;-74
2023/03/20 06:06:15;;;;;;;29.05;15.48;;;10.60;99.90;;;;;;5054401;28;20106;-73
2023/03/20 06:08:41;;;;;;;41.58;16.77;;;10.60;99.90;;;;;;5054209;28;20038;-75
2023/03/20 06:11:07;;;;;;;40.33;18.77;;;10.70;99.90;;;;;;5052593;28;20040;-73
2023/03/20 06:13:33;;;;;;;31.08;16.35;;;10.80;99.90;;;;;;5053416;28;20108;-73
2023/03/20 06:15:59;;;;;;;33.80;16.00;;;10.80;99.90;;;;;;5054809;28;20104;-75
2023/03/20 06:18:25;;;;;;;33.92;16.05;;;10.90;99.90;;;;;;5054025;28;20061;-73
2023/03/20 06:20:56;;;;;;;41.92;18.55;;;10.90;99.90;;;;;;5054171;28;20056;-75
2023/03/20 06:23:22;;;;;;;39.83;18.70;;;11.00;99.90;;;;;;5053178;28;20028;-73
2023/03/20 06:25:48;;;;;;;59.78;28.27;;;11.00;99.90;;;;;;5053661;28;20021;-73
2023/03/20 06:28:14;;;;;;;60.05;30.92;;;11.10;99.90;;;;;;5053781;28;20456;-73
2023/03/20 06:30:40;;;;;;;72.90;35.42;;;11.20;99.90;;;;;;5053716;28;20098;-75
2023/03/20 06:33:06;;;;;;;59.83;29.20;;;11.30;99.90;;;;;;5053654;28;20036;-74
2023/03/20 06:35:32;;;;;;;41.85;20.75;;;11.50;99.20;;;;;;5053908;28;20096;-73
2023/03/20 06:37:58;;;;;;;38.67;17.17;;;11.60;98.70;;;;;;5054030;28;20036;-76
2023/03/20 06:40:26;;;;;;;33.28;16.75;;;11.70;98.20;;;;;;5053258;28;20033;-73
2023/03/20 06:42:52;;;;;;;38.88;17.42;;;11.80;97.70;;;;;;5054188;28;20103;-73
2023/03/20 06:45:19;;;;;;;46.78;22.83;;;12.00;96.40;;;;;;5054270;28;20029;-75
2023/03/20 06:47:46;;;;;;;40.53;20.08;;;12.20;96.20;;;;;;5051849;28;20074;-73
2023/03/20 06:50:12;;;;;;;34.63;17.52;;;12.30;95.80;;;;;;5052936;28;20049;-73
2023/03/20 06:52:38;;;;;;;30.05;15.93;;;12.50;95.50;;;;;;5051928;28;20525;-74
2023/03/20 06:55:05;;;;;;;28.50;14.35;;;;;;;;;;5052515;28;20033;-76
2023/03/20 06:57:31;;;;;;;29.35;13.68;;;12.60;94.70;;;;;;5053210;28;20147;-74
2023/03/20 06:59:57;;;;;;;34.72;15.88;;;12.80;93.40;;;;;;5052995;28;20032;-74
2023/03/20 07:02:23;;;;;;;28.40;13.70;;;12.80;92.80;;;;;;5053396;28;20028;-75
2023/03/20 07:04:49;;;;;;;32.40;16.35;;;12.90;92.60;;;;;;5052215;28;20025;-73
2023/03/20 07:07:16;;;;;;;31.92;15.63;;;13.10;92.00;;;;;;5052737;28;20391;-74
2023/03/20 07:09:42;;;;;;;27.55;14.52;;;13.30;92.30;;;;;;5051756;28;20032;-73
2023/03/20 07:12:15;;;;;;;36.50;15.82;;;13.50;91.80;;;;;;5053225;28;20040;-74
2023/03/20 07:14:44;;;;;;;30.67;15.00;;;13.60;91.20;;;;;;5051569;28;20025;-74
2023/03/20 07:17:11;;;;;;;45.15;19.58;;;13.70;90.90;;;;;;5051929;28;20033;-73
2023/03/20 07:19:37;;;;;;;43.45;19.05;;;13.80;90.80;;;;;;5052512;28;20104;-75
2023/03/20 07:22:06;;;;;;;33.28;15.30;;;14.00;89.30;;;;;;5050997;28;20123;-74
2023/03/20 07:24:32;;;;;;;27.25;14.75;;;14.20;89.00;;;;;;5049995;28;20032;-76
2023/03/20 07:26:58;;;;;;;33.10;14.63;;;14.40;86.50;;;;;;5053206;28;20491;-74
2023/03/20 07:29:24;;;;;;;27.50;14.65;;;14.50;86.00;;;;;;5053239;28;20020;-75
2023/03/20 07:31:49;;;;;;;30.80;15.48;;;14.70;84.10;;;;;;5053343;28;20103;-73
2023/03/20 07:34:17;;;;;;;29.00;15.68;;;14.80;82.00;;;;;;5046980;28;20048;-74
2023/03/20 07:36:43;;;;;;;20.15;10.85;;;15.00;81.20;;;;;;5052110;28;20029;-75
2023/03/20 07:39:13;;;;;;;23.10;12.80;;;15.10;78.60;;;;;;5051184;28;20482;-74
2023/03/20 07:41:39;;;;;;;21.65;12.45;;;15.20;77.70;;;;;;5052164;28;20036;-74
2023/03/20 07:44:07;;;;;;;19.15;10.40;;;15.30;77.70;;;;;;5053534;28;20031;-74
2023/03/20 07:46:33;;;;;;;26.50;12.88;;;15.50;74.40;;;;;;5053628;28;20057;-75
2023/03/20 07:48:58;;;;;;;27.30;13.85;;;15.60;73.80;;;;;;5053225;28;20498;-75
2023/03/20 07:51:24;;;;;;;26.05;12.85;;;15.90;73.60;;;;;;5052172;28;20427;-73
2023/03/20 07:53:50;;;;;;;20.38;10.75;;;16.20;72.60;;;;;;5051250;28;20029;-74
2023/03/20 07:56:16;;;;;;;18.38;9.52;;;16.30;71.00;;;;;;5050500;28;20044;-74
2023/03/20 07:58:41;;;;;;;23.25;11.77;;;16.40;69.90;;;;;;5053031;28;20387;-77
2023/03/20 08:01:07;;;;;;;22.50;11.55;;;16.60;69.00;;;;;;5055640;28;20025;-76
2023/03/20 08:03:33;;;;;;;19.30;9.73;;;16.60;67.20;;;;;;5059294;28;20024;-74
2023/03/20 08:05:59;;;;;;;17.38;8.93;;;16.80;68.70;;;;;;5053196;28;20474;-74
2023/03/20 08:08:24;;;;;;;17.83;9.80;;;17.00;64.90;;;;;;5052477;28;20029;-74
2023/03/20 08:10:50;;;;;;;19.50;9.95;;;17.10;62.20;;;;;;5051793;28;20041;-72
2023/03/20 08:13:16;;;;;;;19.30;10.30;;;17.20;62.10;;;;;;5052806;28;20040;-74
2023/03/20 08:15:41;;;;;;;17.92;9.60;;;17.40;62.70;;;;;;5051520;28;20098;-75
2023/03/20 08:18:07;;;;;;;14.48;8.27;;;17.40;61.50;;;;;;5053035;28;20429;-73
2023/03/20 08:20:33;;;;;;;16.35;8.32;;;17.50;61.10;;;;;;5066935;28;20025;-76
2023/03/20 08:22:59;;;;;;;15.15;8.80;;;17.80;62.10;;;;;;5061765;28;20060;-76
2023/03/20 08:25:24;;;;;;;17.60;9.23;;;18.00;60.00;;;;;;5052586;28;20025;-74
2023/03/20 08:27:50;;;;;;;15.13;8.65;;;18.00;59.50;;;;;;5071094;28;20457;-74
2023/03/20 08:30:16;;;;;;;15.60;9.10;;;18.10;57.20;;;;;;5067750;28;20037;-75
2023/03/20 08:32:42;;;;;;;17.27;8.75;;;18.30;58.30;;;;;;5052506;28;20082;-73
2023/03/20 08:35:08;;;;;;;17.20;9.63;;;18.20;58.60;;;;;;5055909;28;20078;-73
2023/03/20 08:37:36;;;;;;;20.90;9.70;;;18.40;58.20;;;;;;5056444;28;20049;-73
2023/03/20 08:40:03;;;;;;;19.02;9.82;;;18.30;58.50;;;;;;5056209;28;20021;-73
2023/03/20 08:42:29;;;;;;;17.92;8.95;;;18.40;58.80;;;;;;5054171;28;20059;-76
2023/03/20 08:44:55;;;;;;;13.60;8.27;;;18.30;58.00;;;;;;5055928;28;20053;-75
2023/03/20 08:47:21;;;;;;;18.48;8.20;;;18.40;55.90;;;;;;5055913;28;20021;-75
2023/03/20 08:49:46;;;;;;;16.02;8.57;;;18.50;55.70;;;;;;5055601;28;20491;-77
2023/03/20 08:52:12;;;;;;;16.58;9.15;;;19.00;56.00;;;;;;5054961;28;20040;-75
2023/03/20 08:54:38;;;;;;;20.30;10.55;;;19.20;55.50;;;;;;5055320;28;20033;-75
2023/03/20 08:57:04;;;;;;;19.33;8.40;;;19.30;55.20;;;;;;5056236;28;20021;-77
2023/03/20 08:59:30;;;;;;;14.30;8.40;;;;;;;;;;5055008;28;20025;-75
2023/03/20 09:01:56;;;;;;;15.85;8.65;;;19.60;54.20;;;;;;5056513;28;20104;-77
2023/03/20 09:04:21;;;;;;;17.52;8.50;;;19.90;54.50;;;;;;5054971;28;20116;-74
2023/03/20 09:06:49;;;;;;;14.43;8.43;;;20.10;54.60;;;;;;5054588;28;20021;-76
2023/03/20 09:09:17;;;;;;;15.05;7.13;;;20.30;53.60;;;;;;5055177;28;20029;-74
2023/03/20 09:11:43;;;;;;;15.73;8.95;;;20.20;52.10;;;;;;5055343;28;20094;-76
2023/03/20 09:14:09;;;;;;;18.33;7.55;;;20.10;51.00;;;;;;5054760;28;20033;-76
2023/03/20 09:16:35;;;;;;;14.38;7.30;;;20.00;51.50;;;;;;5055523;28;20017;-75
2023/03/20 09:19:00;;;;;;;17.67;7.93;;;20.20;49.00;;;;;;5061594;28;20345;-74
2023/03/20 09:21:26;;;;;;;14.40;7.65;;;19.80;47.80;;;;;;5067773;28;20036;-76
2023/03/20 09:23:52;;;;;;;11.25;6.85;;;20.20;47.60;;;;;;5060362;28;20032;-76
2023/03/20 09:26:17;;;;;;;11.02;5.50;;;20.20;46.40;;;;;;5054366;28;20025;-76
2023/03/20 09:28:43;;;;;;;10.90;5.82;;;20.30;47.20;;;;;;5055288;28;20381;-77
2023/03/20 09:31:09;;;;;;;12.85;5.28;;;20.50;47.10;;;;;;5054382;28;20072;-75
2023/03/20 09:33:34;;;;;;;12.05;6.60;;;20.70;45.90;;;;;;5054533;28;20025;-75
2023/03/20 09:36:00;;;;;;;8.95;5.40;;;21.00;45.00;;;;;;5054374;28;20052;-82
2023/03/20 09:38:26;;;;;;;15.15;6.75;;;20.80;44.20;;;;;;5054162;28;20433;-81
2023/03/20 09:40:58;;;;;;;12.30;6.65;;;20.80;44.40;;;;;;5057910;28;20029;-79
2023/03/20 09:43:24;;;;;;;15.40;7.22;;;20.90;45.30;;;;;;5073360;28;20127;-81
2023/03/20 09:46:03;;;;;;;13.40;5.70;;;20.70;45.30;;;;;;5073990;28;20158;-79
2023/03/20 09:49:17;;;;;;;14.63;6.75;;;20.90;43.50;;;;;;5073854;28;20119;-79
2023/03/20 09:51:52;;;;;;;12.38;5.28;;;20.60;44.70;;;;;;5065834;28;20044;-80
2023/03/20 09:54:23;;;;;;;11.70;5.55;;;20.70;43.60;;;;;;5074186;28;20024;-80
2023/03/20 09:56:50;;;;;;;11.32;6.00;;;20.90;42.50;;;;;;5074038;28;20024;-79
2023/03/20 09:59:18;;;;;;;17.30;6.63;;;21.10;43.60;;;;;;5056788;28;20074;-78
2023/03/20 10:01:49;;;;;;;13.48;5.72;;;21.20;43.00;;;;;;5054906;28;20441;-83
2023/03/20 10:04:15;;;;;;;13.73;5.27;;;21.40;42.80;;;;;;5065039;28;20082;-79
2023/03/20 10:06:41;;;;;;;7.93;4.70;;;20.90;41.90;;;;;;5054157;28;20460;-80
2023/03/20 10:09:23;;;;;;;8.27;3.38;;;20.90;42.40;;;;;;5067511;28;20031;-82
2023/03/20 10:12:02;;;;;;;11.25;5.13;;;20.60;38.70;;;;;;5065719;28;20104;-82
2023/03/20 10:15:01;;;;;;;9.30;4.45;;;20.40;41.20;;;;;;5053925;28;20372;-81
2023/03/20 10:17:48;;;;;;;10.52;5.70;;;20.10;40.70;;;;;;5054503;28;20499;-80
2023/03/20 10:20:34;;;;;;;14.05;7.15;;;20.00;40.40;;;;;;5059821;28;20021;-81
2023/03/20 10:23:20;;;;;;;10.98;4.60;;;19.80;42.30;;;;;;5073484;28;20029;-82
2023/03/20 10:25:52;;;;;;;10.23;4.70;;;19.50;43.50;;;;;;5074853;28;20027;-79
2023/03/20 10:28:25;;;;;;;10.10;5.53;;;19.60;44.50;;;;;;5063314;28;20112;-79
2023/03/20 10:31:15;;;;;;;13.93;6.15;;;20.40;43.40;;;;;;5054534;28;20055;-81
2023/03/20 10:34:00;;;;;;;18.92;6.60;;;21.30;42.80;;;;;;5063723;28;20378;-82
2023/03/20 10:36:51;;;;;;;13.27;5.38;;;21.90;39.30;;;;;;5071997;28;20025;-82
2023/03/20 10:40:04;;;;;;;17.33;6.40;;;21.70;39.60;;;;;;5053382;28;20080;-81
2023/03/20 10:42:36;;;;;;;17.20;6.65;;;21.70;38.70;;;;;;4996925;28;20092;-82
2023/03/20 10:45:17;;;;;;;12.18;6.93;;;22.00;38.60;;;;;;5003353;28;20046;-81
2023/03/20 10:47:47;;;;;;;26.38;10.93;;;21.40;38.20;;;;;;5032273;28;20029;-81
2023/03/20 10:50:18;;;;;;;12.30;6.80;;;21.70;38.70;;;;;;5015611;28;20583;-80
2023/03/20 10:52:48;;;;;;;8.77;5.03;;;22.40;39.30;;;;;;5015356;28;20030;-80
2023/03/20 10:55:21;;;;;;;11.13;5.50;;;22.50;42.40;;;;;;5032041;28;20507;-82
2023/03/20 10:57:51;;;;;;;14.13;5.82;;;23.00;37.30;;;;;;5014696;28;20361;-80
2023/03/20 11:00:22;;;;;;;13.52;5.68;;;;;;;;;;5015358;28;20083;-81
2023/03/20 11:02:48;;;;;;;11.77;5.40;;;;;;;;;;5015333;28;20033;-80
2023/03/20 11:05:20;;;;;;;9.18;5.25;;;;;;;;;;5014861;28;20034;-80
2023/03/20 11:07:49;;;;;;;11.15;6.07;;;;;;;;;;5015379;28;20021;-81
2023/03/20 11:10:16;;;;;;;17.88;6.47;;;;;;;;;;5015225;28;20508;-80
2023/03/20 11:12:42;;;;;;;11.40;5.57;;;23.60;34.90;;;;;;5014834;28;20519;-80
2023/03/20 11:15:28;;;;;;;12.57;6.05;;;23.80;36.40;;;;;;5032045;28;20124;-81
2023/03/20 11:23:18;;;;;;;14.27;5.85;;;;;;;;;;5070817;28;20391;-80
2023/03/20 11:25:52;;;;;;;11.27;5.07;;;;;;;;;;5069677;28;20044;-80
2023/03/20 11:28:20;;;;;;;9.93;4.82;;;;;;;;;;5071090;28;20079;-81
2023/03/20 11:30:47;;;;;;;10.80;5.20;;;;;;;;;;5069776;28;20170;-79
2023/03/20 11:33:15;;;;;;;13.20;4.93;;;;;;;;;;5069375;28;20025;-78
2023/03/20 11:35:44;;;;;;;14.10;5.15;;;;;;;;;;5069678;28;20060;-81
2023/03/20 11:38:14;;;;;;;12.32;4.95;;;;;;;;;;5069621;28;20486;-78
2023/03/20 11:40:40;;;;;;;16.40;8.02;;;;;;;;;;5070542;28;20028;-80
2023/03/20 11:43:18;;;;;;;9.48;4.65;;;;;;;;;;5070741;28;20037;-79
2023/03/20 11:45:45;;;;;;;6.60;4.10;;;;;;;;;;5069521;28;20029;-80
2023/03/20 11:48:17;;;;;;;8.60;4.03;;;;;;;;;;5069144;28;20530;-78
2023/03/20 11:50:43;;;;;;;;;;;;;;;;;;5069870;28;20173;-79
2023/03/20 11:53:28;;;;;;;8.20;3.58;;;;;;;;;;5070876;28;20019;-80
2023/03/20 11:56:12;;;;;;;7.53;3.70;;;;;;;;;;5069149;28;20020;-79
2023/03/20 11:58:48;;;;;;;5.97;3.40;;;;;;;;;;5069221;28;20353;-78
2023/03/20 12:01:14;;;;;;;13.13;4.47;;;;;;;;;;5069801;28;20024;-77
2023/03/20 12:03:41;;;;;;;9.18;5.03;;;;;;;;;;5069369;28;20075;-77
2023/03/20 12:06:08;;;;;;;8.90;4.10;;;;;;;;;;5069077;28;20027;-80
2023/03/20 12:08:36;;;;;;;9.90;4.55;;;;;;;;;;5069970;28;20017;-78
2023/03/20 12:11:19;;;;;;;11.77;3.72;;;;;;;;;;5069961;28;20023;-78
2023/03/20 12:13:47;;;;;;;8.20;3.92;;;;;;;;;;5070273;28;20024;-79
2023/03/20 12:16:16;;;;;;;11.63;4.05;;;;;;;;;;5068476;28;20395;-78
2023/03/20 12:18:42;;;;;;;10.15;4.00;;;;;;;;;;5068743;28;20033;-77
2023/03/20 12:21:11;;;;;;;21.45;14.02;;;;;;;;;;5068338;28;20386;-79
2023/03/20 12:24:04;;;;;;;6.65;3.75;;;;;;;;;;5069948;28;20367;-80
2023/03/20 12:26:44;;;;;;;10.10;5.47;;;;;;;;;;5061419;28;20038;-80
2023/03/20 12:29:37;;;;;;;9.43;3.17;;;24.40;29.40;;;;;;5069559;28;20106;-78
2023/03/20 12:32:03;;;;;;;30.70;10.23;;;;;;;;;;5068662;28;20065;-79
2023/03/20 12:34:37;;;;;;;10.48;4.82;;;24.20;29.00;;;;;;5057167;28;20028;-80
2023/03/20 12:37:04;;;;;;;6.35;3.53;;;;;;;;;;5054943;28;20379;-80
2023/03/20 12:39:35;;;;;;;11.23;3.15;;;;;;;;;;5056788;28;20025;-80
2023/03/20 12:42:20;;;;;;;6.53;2.85;;;;;;;;;;5055066;28;20052;-78
2023/03/20 12:45:17;;;;;;;5.38;2.45;;;;;;;;;;5055850;28;20368;-80
2023/03/20 12:47:50;;;;;;;6.07;2.85;;;;;;;;;;5033831;28;20157;-79
2023/03/20 12:50:16;;;;;;;6.72;3.17;;;;;;;;;;5017055;28;20022;-80
2023/03/20 12:52:46;;;;;;;12.98;5.38;;;;;;;;;;5034272;28;20048;-78
2023/03/20 12:55:23;;;;;;;6.60;3.53;;;;;;;;;;5017196;28;20025;-78
2023/03/20 12:58:10;;;;;;;4.93;2.33;;;;;;;;;;5017049;28;20033;-79
2023/03/20 13:00:51;;;;;;;8.18;3.30;;;;;;;;;;5017490;28;20053;-79
2023/03/20 13:03:23;;;;;;;7.90;3.85;;;24.40;28.90;;;;;;5017140;28;20037;-80
2023/03/20 13:06:18;;;;;;;10.02;2.90;;;23.90;29.00;;;;;;5016927;28;20038;-79
2023/03/20 13:09:19;;;;;;;6.50;2.88;;;23.90;29.70;;;;;;5017246;28;20033;-81
2023/03/20 13:11:45;;;;;;;4.60;3.03;;;23.60;29.60;;;;;;5013910;28;20069;-81